sensor_id;sensor_type;location;lat;lon;timestamp;pressure;altitude;pressure_sealevel;temperature;humidity
72636;BME280;60679;48.888;15.544;2023-12-14T00:02:18;94904.81;;;2.72;77.82
72636;BME280;60679;48.888;15.544;2023-12-14T00:04:43;94908.06;;;2.74;77.47
72636;BME280;60679;48.888;15.544;2023-12-14T00:07:08;94913.41;;;2.74;77.64
72636;BME280;60679;48.888;15.544;2023-12-14T00:09:34;94914.44;;;2.73;77.63
72636;BME280;60679;48.888;15.544;2023-12-14T00:11:59;94915.47;;;2.72;77.61
72636;BME280;60679;48.888;15.544;2023-12-14T00:14:24;94931.44;;;2.72;77.59
72636;BME280;60679;48.888;15.544;2023-12-14T00:16:50;94920.19;;;2.76;77.80
72636;BME280;60679;48.888;15.544;2023-12-14T00:19:15;94933.06;;;2.86;77.78
72636;BME280;60679;48.888;15.544;2023-12-14T00:21:40;94932.63;;;2.96;77.69
72636;BME280;60679;48.888;15.544;2023-12-14T00:24:06;94934.66;;;3.00;77.66
72636;BME280;60679;48.888;15.544;2023-12-14T00:26:32;94939.38;;;3.05;77.61
72636;BME280;60679;48.888;15.544;2023-12-14T00:28:57;94947.34;;;3.11;77.53
72636;BME280;60679;48.888;15.544;2023-12-14T00:31:22;94953.28;;;3.13;77.67
72636;BME280;60679;48.888;15.544;2023-12-14T00:33:48;94949.41;;;3.09;77.58
72636;BME280;60679;48.888;15.544;2023-12-14T00:36:19;94948.81;;;3.07;77.56
72636;BME280;60679;48.888;15.544;2023-12-14T00:38:44;94942.47;;;3.02;77.41
72636;BME280;60679;48.888;15.544;2023-12-14T00:41:10;94946.78;;;2.96;77.53
72636;BME280;60679;48.888;15.544;2023-12-14T00:43:35;94949.03;;;2.92;77.70
72636;BME280;60679;48.888;15.544;2023-12-14T00:46:02;94952.31;;;2.88;77.71
72636;BME280;60679;48.888;15.544;2023-12-14T00:48:28;94957.44;;;2.89;77.64
72636;BME280;60679;48.888;15.544;2023-12-14T00:50:53;94955.19;;;2.93;77.72
72636;BME280;60679;48.888;15.544;2023-12-14T00:53:18;94960.91;;;2.97;77.73
72636;BME280;60679;48.888;15.544;2023-12-14T00:55:44;94965.03;;;2.92;77.59
72636;BME280;60679;48.888;15.544;2023-12-14T00:58:11;94967.09;;;2.90;77.75
72636;BME280;60679;48.888;15.544;2023-12-14T01:00:38;94957.28;;;2.84;77.56
72636;BME280;60679;48.888;15.544;2023-12-14T01:03:03;94968.94;;;2.77;77.71
72636;BME280;60679;48.888;15.544;2023-12-14T01:05:29;94965.50;;;2.70;78.19
72636;BME280;60679;48.888;15.544;2023-12-14T01:07:54;94967.97;;;2.65;77.82
72636;BME280;60679;48.888;15.544;2023-12-14T01:10:20;94974.72;;;2.61;77.88
72636;BME280;60679;48.888;15.544;2023-12-14T01:12:45;94977.19;;;2.56;77.66
72636;BME280;60679;48.888;15.544;2023-12-14T01:15:10;94977.00;;;2.51;78.00
72636;BME280;60679;48.888;15.544;2023-12-14T01:17:36;94979.84;;;2.56;77.93
72636;BME280;60679;48.888;15.544;2023-12-14T01:20:07;94985.97;;;2.63;78.08
72636;BME280;60679;48.888;15.544;2023-12-14T01:22:33;94996.03;;;2.67;77.90
72636;BME280;60679;48.888;15.544;2023-12-14T01:24:58;94991.53;;;2.68;77.84
72636;BME280;60679;48.888;15.544;2023-12-14T01:27:24;94998.06;;;2.65;78.01
72636;BME280;60679;48.888;15.544;2023-12-14T01:29:50;94997.47;;;2.70;77.69
72636;BME280;60679;48.888;15.544;2023-12-14T01:32:15;94997.06;;;2.73;77.94
72636;BME280;60679;48.888;15.544;2023-12-14T01:34:40;94992.97;;;2.70;77.95
72636;BME280;60679;48.888;15.544;2023-12-14T01:37:06;94993.56;;;2.66;77.90
72636;BME280;60679;48.888;15.544;2023-12-14T01:39:32;94992.53;;;2.60;78.07
72636;BME280;60679;48.888;15.544;2023-12-14T01:41:57;95004.84;;;2.55;78.04
72636;BME280;60679;48.888;15.544;2023-12-14T01:44:23;95002.41;;;2.53;77.85
72636;BME280;60679;48.888;15.544;2023-12-14T01:46:48;95000.97;;;2.51;78.09
72636;BME280;60679;48.888;15.544;2023-12-14T01:49:13;94995.00;;;2.49;78.24
72636;BME280;60679;48.888;15.544;2023-12-14T01:51:39;95003.81;;;2.49;78.25
72636;BME280;60679;48.888;15.544;2023-12-14T01:54:04;95008.53;;;2.60;78.26
72636;BME280;60679;48.888;15.544;2023-12-14T01:56:29;95006.06;;;2.65;78.13
72636;BME280;60679;48.888;15.544;2023-12-14T01:58:55;95008.31;;;2.68;78.01
72636;BME280;60679;48.888;15.544;2023-12-14T02:03:55;95017.56;;;2.59;78.01
72636;BME280;60679;48.888;15.544;2023-12-14T02:06:20;95015.50;;;2.55;77.91
72636;BME280;60679;48.888;15.544;2023-12-14T02:08:46;95017.56;;;2.53;78.20
72636;BME280;60679;48.888;15.544;2023-12-14T02:11:12;95019.41;;;2.52;78.25
72636;BME280;60679;48.888;15.544;2023-12-14T02:13:37;95019.63;;;2.51;78.18
72636;BME280;60679;48.888;15.544;2023-12-14T02:16:03;95012.63;;;2.50;78.29
72636;BME280;60679;48.888;15.544;2023-12-14T02:18:28;95017.13;;;2.49;78.27
72636;BME280;60679;48.888;15.544;2023-12-14T02:20:54;95015.53;;;2.48;78.26
72636;BME280;60679;48.888;15.544;2023-12-14T02:23:19;95014.69;;;2.48;78.09
72636;BME280;60679;48.888;15.544;2023-12-14T02:25:44;95011.63;;;2.44;78.08
72636;BME280;60679;48.888;15.544;2023-12-14T02:28:10;95009.34;;;2.41;78.10
72636;BME280;60679;48.888;15.544;2023-12-14T02:30:35;95013.47;;;2.37;78.13
72636;BME280;60679;48.888;15.544;2023-12-14T02:33:01;95019.19;;;2.34;78.27
72636;BME280;60679;48.888;15.544;2023-12-14T02:35:26;95022.84;;;2.26;78.37
72636;BME280;60679;48.888;15.544;2023-12-14T02:37:51;95024.72;;;2.19;78.03
72636;BME280;60679;48.888;15.544;2023-12-14T02:40:17;95025.50;;;2.13;78.32
72636;BME280;60679;48.888;15.544;2023-12-14T02:42:42;95033.09;;;2.10;78.43
72636;BME280;60679;48.888;15.544;2023-12-14T02:45:08;95042.72;;;2.11;78.31
72636;BME280;60679;48.888;15.544;2023-12-14T02:47:34;95044.34;;;2.12;78.52
72636;BME280;60679;48.888;15.544;2023-12-14T02:49:59;95042.31;;;2.14;78.43
72636;BME280;60679;48.888;15.544;2023-12-14T02:52:25;95043.78;;;2.23;78.51
72636;BME280;60679;48.888;15.544;2023-12-14T02:54:51;95053.41;;;2.30;78.33
72636;BME280;60679;48.888;15.544;2023-12-14T02:57:16;95050.34;;;2.33;78.56
72636;BME280;60679;48.888;15.544;2023-12-14T02:59:41;95058.75;;;2.37;78.28
72636;BME280;60679;48.888;15.544;2023-12-14T03:02:07;95063.63;;;2.40;78.38
72636;BME280;60679;48.888;15.544;2023-12-14T03:04:32;95070.00;;;2.52;78.14
72636;BME280;60679;48.888;15.544;2023-12-14T03:06:58;95068.59;;;2.56;78.21
72636;BME280;60679;48.888;15.544;2023-12-14T03:09:28;95072.88;;;2.57;78.32
72636;BME280;60679;48.888;15.544;2023-12-14T03:11:53;95075.97;;;2.61;78.34
72636;BME280;60679;48.888;15.544;2023-12-14T03:14:19;95079.66;;;2.66;78.35
72636;BME280;60679;48.888;15.544;2023-12-14T03:16:44;95083.97;;;2.67;78.36
72636;BME280;60679;48.888;15.544;2023-12-14T03:19:09;95085.38;;;2.63;78.00
72636;BME280;60679;48.888;15.544;2023-12-14T03:21:35;95083.53;;;2.57;78.30
72636;BME280;60679;48.888;15.544;2023-12-14T03:24:00;95081.47;;;2.46;78.38
72636;BME280;60679;48.888;15.544;2023-12-14T03:26:25;95089.47;;;2.33;78.38
72636;BME280;60679;48.888;15.544;2023-12-14T03:28:51;95086.16;;;2.24;78.46
72636;BME280;60679;48.888;15.544;2023-12-14T03:31:16;95087.56;;;2.20;78.40
72636;BME280;60679;48.888;15.544;2023-12-14T03:33:42;95095.97;;;2.17;78.50
72636;BME280;60679;48.888;15.544;2023-12-14T03:36:08;95094.75;;;2.13;78.49
72636;BME280;60679;48.888;15.544;2023-12-14T03:38:33;95101.91;;;2.13;78.65
72636;BME280;60679;48.888;15.544;2023-12-14T03:40:58;95100.06;;;2.13;78.61
72636;BME280;60679;48.888;15.544;2023-12-14T03:43:24;95102.31;;;2.16;78.56
72636;BME280;60679;48.888;15.544;2023-12-14T03:45:49;95099.88;;;2.21;78.58
72636;BME280;60679;48.888;15.544;2023-12-14T03:48:15;95099.25;;;2.26;78.58
72636;BME280;60679;48.888;15.544;2023-12-14T03:50:40;95114.03;;;2.35;78.43
72636;BME280;60679;48.888;15.544;2023-12-14T03:53:06;95109.16;;;2.45;78.50
72636;BME280;60679;48.888;15.544;2023-12-14T03:55:32;95120.22;;;2.49;78.35
72636;BME280;60679;48.888;15.544;2023-12-14T03:57:57;95115.91;;;2.48;78.72
72636;BME280;60679;48.888;15.544;2023-12-14T04:00:22;95128.63;;;2.52;78.36
72636;BME280;60679;48.888;15.544;2023-12-14T04:02:48;95126.16;;;2.51;78.57
72636;BME280;60679;48.888;15.544;2023-12-14T04:05:14;95130.25;;;2.47;78.56
72636;BME280;60679;48.888;15.544;2023-12-14T04:07:39;95132.13;;;2.53;78.50
72636;BME280;60679;48.888;15.544;2023-12-14T04:10:14;95130.88;;;2.55;78.50
72636;BME280;60679;48.888;15.544;2023-12-14T04:12:40;95138.66;;;2.50;78.56
72636;BME280;60679;48.888;15.544;2023-12-14T04:15:07;95145.00;;;2.43;78.60
72636;BME280;60679;48.888;15.544;2023-12-14T04:17:33;95156.25;;;2.38;78.70
72636;BME280;60679;48.888;15.544;2023-12-14T04:19:59;95149.31;;;2.37;78.36
72636;BME280;60679;48.888;15.544;2023-12-14T04:22:25;95158.91;;;2.38;78.67
72636;BME280;60679;48.888;15.544;2023-12-14T04:24:51;95163.84;;;2.41;78.71
72636;BME280;60679;48.888;15.544;2023-12-14T04:27:16;95158.94;;;2.45;78.54
72636;BME280;60679;48.888;15.544;2023-12-14T04:29:42;95170.03;;;2.48;78.74
72636;BME280;60679;48.888;15.544;2023-12-14T04:32:07;95167.56;;;2.53;78.49
72636;BME280;60679;48.888;15.544;2023-12-14T04:34:33;95170.03;;;2.55;78.57
72636;BME280;60679;48.888;15.544;2023-12-14T04:36:58;95166.94;;;2.58;78.60
72636;BME280;60679;48.888;15.544;2023-12-14T04:39:24;95169.03;;;2.62;78.58
72636;BME280;60679;48.888;15.544;2023-12-14T04:41:50;95176.81;;;2.64;78.36
72636;BME280;60679;48.888;15.544;2023-12-14T04:44:16;95173.13;;;2.65;78.43
72636;BME280;60679;48.888;15.544;2023-12-14T04:46:41;95169.81;;;2.63;78.49
72636;BME280;60679;48.888;15.544;2023-12-14T04:49:07;95180.28;;;2.58;78.48
72636;BME280;60679;48.888;15.544;2023-12-14T04:51:32;95181.06;;;2.52;78.72
72636;BME280;60679;48.888;15.544;2023-12-14T04:53:58;95188.66;;;2.48;78.56
72636;BME280;60679;48.888;15.544;2023-12-14T04:56:23;95179.22;;;2.46;78.63
72636;BME280;60679;48.888;15.544;2023-12-14T04:58:48;95192.94;;;2.36;78.55
72636;BME280;60679;48.888;15.544;2023-12-14T05:01:14;95196.53;;;2.15;78.58
72636;BME280;60679;48.888;15.544;2023-12-14T05:03:39;95202.81;;;2.01;78.79
72636;BME280;60679;48.888;15.544;2023-12-14T05:06:05;95202.19;;;1.99;79.08
72636;BME280;60679;48.888;15.544;2023-12-14T05:08:31;95203.84;;;2.07;78.98
72636;BME280;60679;48.888;15.544;2023-12-14T05:10:57;95214.97;;;2.17;78.75
72636;BME280;60679;48.888;15.544;2023-12-14T05:13:22;95217.88;;;2.22;78.92
72636;BME280;60679;48.888;15.544;2023-12-14T05:15:47;95221.13;;;2.24;78.83
72636;BME280;60679;48.888;15.544;2023-12-14T05:18:13;95222.41;;;2.28;78.82
72636;BME280;60679;48.888;15.544;2023-12-14T05:20:38;95227.94;;;2.33;79.15
72636;BME280;60679;48.888;15.544;2023-12-14T05:23:04;95229.78;;;2.32;78.72
72636;BME280;60679;48.888;15.544;2023-12-14T05:25:29;95228.16;;;2.38;78.66
72636;BME280;60679;48.888;15.544;2023-12-14T05:27:54;95225.94;;;2.42;78.74
72636;BME280;60679;48.888;15.544;2023-12-14T05:30:20;95237.84;;;2.52;78.90
72636;BME280;60679;48.888;15.544;2023-12-14T05:32:45;95236.84;;;2.60;78.80
72636;BME280;60679;48.888;15.544;2023-12-14T05:35:11;95239.53;;;2.66;78.65
72636;BME280;60679;48.888;15.544;2023-12-14T05:37:38;95251.25;;;2.72;78.76
72636;BME280;60679;48.888;15.544;2023-12-14T05:40:04;95243.47;;;2.77;78.72
72636;BME280;60679;48.888;15.544;2023-12-14T05:42:30;95250.03;;;2.81;78.61
72636;BME280;60679;48.888;15.544;2023-12-14T05:44:55;95264.81;;;2.83;78.76
72636;BME280;60679;48.888;15.544;2023-12-14T05:47:21;95258.66;;;2.83;78.47
72636;BME280;60679;48.888;15.544;2023-12-14T05:49:46;95269.53;;;2.81;78.43
72636;BME280;60679;48.888;15.544;2023-12-14T05:52:11;95273.41;;;2.85;78.72
72636;BME280;60679;48.888;15.544;2023-12-14T05:54:37;95268.31;;;2.90;78.76
72636;BME280;60679;48.888;15.544;2023-12-14T05:57:03;95269.75;;;2.93;78.82
72636;BME280;60679;48.888;15.544;2023-12-14T05:59:29;95278.56;;;2.93;78.58
72636;BME280;60679;48.888;15.544;2023-12-14T06:01:57;95276.94;;;2.92;78.58
72636;BME280;60679;48.888;15.544;2023-12-14T06:04:22;95281.44;;;2.92;78.61
72636;BME280;60679;48.888;15.544;2023-12-14T06:06:48;95287.78;;;2.91;78.64
72636;BME280;60679;48.888;15.544;2023-12-14T06:09:13;95293.34;;;2.89;78.47
72636;BME280;60679;48.888;15.544;2023-12-14T06:11:38;95299.66;;;2.88;78.54
72636;BME280;60679;48.888;15.544;2023-12-14T06:14:04;95299.50;;;2.90;78.74
72636;BME280;60679;48.888;15.544;2023-12-14T06:16:29;95307.28;;;2.91;78.84
72636;BME280;60679;48.888;15.544;2023-12-14T06:18:55;95305.44;;;2.92;78.79
72636;BME280;60679;48.888;15.544;2023-12-14T06:21:21;95322.03;;;2.94;78.56
72636;BME280;60679;48.888;15.544;2023-12-14T06:23:46;95322.88;;;2.95;78.59
72636;BME280;60679;48.888;15.544;2023-12-14T06:26:11;95331.47;;;2.97;78.62
72636;BME280;60679;48.888;15.544;2023-12-14T06:28:37;95333.53;;;2.95;78.81
72636;BME280;60679;48.888;15.544;2023-12-14T06:31:02;95344.81;;;2.90;78.62
72636;BME280;60679;48.888;15.544;2023-12-14T06:33:28;95346.22;;;2.86;78.73
72636;BME280;60679;48.888;15.544;2023-12-14T06:35:53;95351.31;;;2.81;78.54
72636;BME280;60679;48.888;15.544;2023-12-14T06:38:19;95352.31;;;2.73;78.69
72636;BME280;60679;48.888;15.544;2023-12-14T06:40:47;95353.94;;;2.74;78.80
72636;BME280;60679;48.888;15.544;2023-12-14T06:43:16;95353.94;;;2.74;78.93
72636;BME280;60679;48.888;15.544;2023-12-14T06:45:41;95359.50;;;2.73;78.79
72636;BME280;60679;48.888;15.544;2023-12-14T06:48:07;95361.72;;;2.69;78.81
72636;BME280;60679;48.888;15.544;2023-12-14T06:50:33;95370.94;;;2.67;78.81
72636;BME280;60679;48.888;15.544;2023-12-14T06:52:58;95374.81;;;2.64;78.94
72636;BME280;60679;48.888;15.544;2023-12-14T06:55:24;95368.66;;;2.64;78.84
72636;BME280;60679;48.888;15.544;2023-12-14T06:57:49;95370.31;;;2.65;78.86
72636;BME280;60679;48.888;15.544;2023-12-14T07:00:15;95380.34;;;2.63;78.82
72636;BME280;60679;48.888;15.544;2023-12-14T07:02:40;95380.97;;;2.65;78.90
72636;BME280;60679;48.888;15.544;2023-12-14T07:05:06;95385.09;;;2.67;78.89
72636;BME280;60679;48.888;15.544;2023-12-14T07:07:31;95391.03;;;2.69;78.82
72636;BME280;60679;48.888;15.544;2023-12-14T07:09:56;95395.78;;;2.74;78.96
72636;BME280;60679;48.888;15.544;2023-12-14T07:12:22;95399.31;;;2.81;78.82
72636;BME280;60679;48.888;15.544;2023-12-14T07:14:47;95402.00;;;2.87;78.93
72636;BME280;60679;48.888;15.544;2023-12-14T07:17:15;95409.19;;;2.93;78.69
72636;BME280;60679;48.888;15.544;2023-12-14T07:19:40;95411.47;;;2.97;78.83
72636;BME280;60679;48.888;15.544;2023-12-14T07:22:06;95419.06;;;3.00;78.71
72636;BME280;60679;48.888;15.544;2023-12-14T07:24:31;95417.06;;;3.02;78.59
72636;BME280;60679;48.888;15.544;2023-12-14T07:26:57;95422.19;;;3.03;78.57
72636;BME280;60679;48.888;15.544;2023-12-14T07:29:22;95419.53;;;3.10;78.77
72636;BME280;60679;48.888;15.544;2023-12-14T07:31:47;95428.78;;;3.14;78.58
72636;BME280;60679;48.888;15.544;2023-12-14T07:34:13;95429.44;;;3.16;78.47
72636;BME280;60679;48.888;15.544;2023-12-14T07:36:38;95432.88;;;3.16;78.44
72636;BME280;60679;48.888;15.544;2023-12-14T07:39:03;95438.03;;;3.18;78.55
72636;BME280;60679;48.888;15.544;2023-12-14T07:41:30;95433.31;;;3.20;78.72
72636;BME280;60679;48.888;15.544;2023-12-14T07:43:57;95442.78;;;3.22;78.52
72636;BME280;60679;48.888;15.544;2023-12-14T07:46:23;95456.09;;;3.22;78.43
72636;BME280;60679;48.888;15.544;2023-12-14T07:48:49;95450.78;;;3.22;78.21
72636;BME280;60679;48.888;15.544;2023-12-14T07:51:15;95460.66;;;3.28;78.19
72636;BME280;60679;48.888;15.544;2023-12-14T07:53:40;95466.47;;;3.38;78.13
72636;BME280;60679;48.888;15.544;2023-12-14T07:56:07;95471.81;;;3.45;78.21
72636;BME280;60679;48.888;15.544;2023-12-14T07:58:33;95472.03;;;3.50;78.15
72636;BME280;60679;48.888;15.544;2023-12-14T08:00:58;95471.44;;;3.55;78.04
72636;BME280;60679;48.888;15.544;2023-12-14T08:03:24;95474.94;;;3.62;77.95
72636;BME280;60679;48.888;15.544;2023-12-14T08:05:49;95473.53;;;3.66;77.80
72636;BME280;60679;48.888;15.544;2023-12-14T08:08:15;95480.34;;;3.75;77.82
72636;BME280;60679;48.888;15.544;2023-12-14T08:10:40;95478.31;;;3.83;77.70
72636;BME280;60679;48.888;15.544;2023-12-14T08:13:05;95480.38;;;4.01;77.63
72636;BME280;60679;48.888;15.544;2023-12-14T08:15:31;95485.34;;;4.24;77.36
72636;BME280;60679;48.888;15.544;2023-12-14T08:17:56;95485.59;;;4.61;76.39
72636;BME280;60679;48.888;15.544;2023-12-14T08:20:21;95484.72;;;5.00;75.74
72636;BME280;60679;48.888;15.544;2023-12-14T08:22:47;95488.28;;;5.52;74.86
72636;BME280;60679;48.888;15.544;2023-12-14T08:25:13;95488.88;;;5.54;75.03
72636;BME280;60679;48.888;15.544;2023-12-14T08:27:39;95495.22;;;5.72;74.76
72636;BME280;60679;48.888;15.544;2023-12-14T08:30:05;95501.53;;;5.91;74.56
72636;BME280;60679;48.888;15.544;2023-12-14T08:32:31;95509.50;;;6.04;74.28
72636;BME280;60679;48.888;15.544;2023-12-14T08:34:56;95510.06;;;6.13;74.05
72636;BME280;60679;48.888;15.544;2023-12-14T08:37:21;95515.19;;;6.52;73.38
72636;BME280;60679;48.888;15.544;2023-12-14T08:39:47;95517.66;;;6.54;73.40
72636;BME280;60679;48.888;15.544;2023-12-14T08:42:18;95524.69;;;6.55;73.33
72636;BME280;60679;48.888;15.544;2023-12-14T08:44:43;95528.97;;;6.24;74.01
72636;BME280;60679;48.888;15.544;2023-12-14T08:47:08;95520.66;;;6.01;74.44
72636;BME280;60679;48.888;15.544;2023-12-14T08:49:34;95532.41;;;6.00;74.58
72636;BME280;60679;48.888;15.544;2023-12-14T08:52:00;95536.13;;;5.99;74.74
72636;BME280;60679;48.888;15.544;2023-12-14T08:54:26;95539.06;;;5.91;74.93
72636;BME280;60679;48.888;15.544;2023-12-14T08:56:51;95541.53;;;5.79;75.11
72636;BME280;60679;48.888;15.544;2023-12-14T08:59:17;95547.50;;;5.88;74.86
72636;BME280;60679;48.888;15.544;2023-12-14T09:01:44;95544.53;;;6.09;74.52
72636;BME280;60679;48.888;15.544;2023-12-14T09:04:10;95545.69;;;6.26;74.42
72636;BME280;60679;48.888;15.544;2023-12-14T09:06:35;95549.59;;;6.24;74.43
72636;BME280;60679;48.888;15.544;2023-12-14T09:09:00;95543.94;;;6.70;73.77
72636;BME280;60679;48.888;15.544;2023-12-14T09:11:26;95555.25;;;7.03;73.82
72636;BME280;60679;48.888;15.544;2023-12-14T09:13:51;95553.00;;;7.25;73.60
72636;BME280;60679;48.888;15.544;2023-12-14T09:16:17;95558.16;;;7.26;73.73
72636;BME280;60679;48.888;15.544;2023-12-14T09:18:42;95558.47;;;7.36;73.68
72636;BME280;60679;48.888;15.544;2023-12-14T09:21:08;95566.72;;;7.78;72.73
72636;BME280;60679;48.888;15.544;2023-12-14T09:23:33;95566.84;;;8.67;71.22
72636;BME280;60679;48.888;15.544;2023-12-14T09:25:58;95568.88;;;8.72;71.62
72636;BME280;60679;48.888;15.544;2023-12-14T09:28:25;95572.16;;;8.07;72.26
72636;BME280;60679;48.888;15.544;2023-12-14T09:30:50;95584.00;;;7.45;72.95
72636;BME280;60679;48.888;15.544;2023-12-14T09:33:16;95583.69;;;7.11;73.11
72636;BME280;60679;48.888;15.544;2023-12-14T09:35:41;95584.13;;;6.83;73.72
72636;BME280;60679;48.888;15.544;2023-12-14T09:38:07;95588.94;;;6.74;74.43
72636;BME280;60679;48.888;15.544;2023-12-14T09:40:33;95592.84;;;6.72;74.48
72636;BME280;60679;48.888;15.544;2023-12-14T09:43:00;95590.16;;;6.72;74.46
72636;BME280;60679;48.888;15.544;2023-12-14T09:45:28;95591.66;;;6.92;74.13
72636;BME280;60679;48.888;15.544;2023-12-14T09:47:56;95601.16;;;6.95;74.16
72636;BME280;60679;48.888;15.544;2023-12-14T09:50:23;95606.34;;;6.59;75.31
72636;BME280;60679;48.888;15.544;2023-12-14T09:52:48;95604.22;;;6.29;75.50
72636;BME280;60679;48.888;15.544;2023-12-14T09:55:15;95613.00;;;5.99;75.81
72636;BME280;60679;48.888;15.544;2023-12-14T09:57:40;95608.91;;;5.83;76.12
72636;BME280;60679;48.888;15.544;2023-12-14T10:00:06;95613.88;;;5.73;76.39
72636;BME280;60679;48.888;15.544;2023-12-14T10:02:36;95614.69;;;5.73;76.16
72636;BME280;60679;48.888;15.544;2023-12-14T10:05:02;95624.97;;;5.83;76.02
72636;BME280;60679;48.888;15.544;2023-12-14T10:07:27;95623.53;;;5.94;75.79
72636;BME280;60679;48.888;15.544;2023-12-14T10:09:53;95624.72;;;6.11;75.50
72636;BME280;60679;48.888;15.544;2023-12-14T10:12:18;95622.97;;;6.29;75.24
72636;BME280;60679;48.888;15.544;2023-12-14T10:14:45;95621.41;;;6.60;74.76
72636;BME280;60679;48.888;15.544;2023-12-14T10:17:16;95626.72;;;6.97;74.01
72636;BME280;60679;48.888;15.544;2023-12-14T10:19:43;95622.53;;;7.33;73.51
72636;BME280;60679;48.888;15.544;2023-12-14T10:22:09;95621.97;;;8.10;72.16
72636;BME280;60679;48.888;15.544;2023-12-14T10:24:35;95614.81;;;8.22;72.31
72636;BME280;60679;48.888;15.544;2023-12-14T10:27:05;95621.00;;;8.23;72.49
72636;BME280;60679;48.888;15.544;2023-12-14T10:29:37;95623.34;;;8.37;72.41
72636;BME280;60679;48.888;15.544;2023-12-14T10:32:05;95629.91;;;8.41;72.24
72636;BME280;60679;48.888;15.544;2023-12-14T10:34:33;95630.63;;;8.66;71.88
72636;BME280;60679;48.888;15.544;2023-12-14T10:36:59;95629.31;;;8.57;72.17
72636;BME280;60679;48.888;15.544;2023-12-14T10:39:26;95628.16;;;8.65;72.26
72636;BME280;60679;48.888;15.544;2023-12-14T10:41:52;95632.28;;;8.97;71.59
72636;BME280;60679;48.888;15.544;2023-12-14T10:44:21;95639.81;;;9.18;71.17
72636;BME280;60679;48.888;15.544;2023-12-14T10:46:50;95633.69;;;9.64;70.35
72636;BME280;60679;48.888;15.544;2023-12-14T10:49:18;95638.84;;;10.01;69.48
72636;BME280;60679;48.888;15.544;2023-12-14T10:51:43;95634.78;;;10.21;69.46
72636;BME280;60679;48.888;15.544;2023-12-14T10:54:09;95642.50;;;9.83;70.40
72636;BME280;60679;48.888;15.544;2023-12-14T10:56:34;95650.13;;;10.09;69.74
72636;BME280;60679;48.888;15.544;2023-12-14T10:59:00;95653.03;;;11.39;67.35
72636;BME280;60679;48.888;15.544;2023-12-14T11:01:26;95646.44;;;11.96;66.64
72636;BME280;60679;48.888;15.544;2023-12-14T11:03:56;95642.50;;;12.64;65.61
72636;BME280;60679;48.888;15.544;2023-12-14T11:08:52;95653.75;;;11.34;67.46
72636;BME280;60679;48.888;15.544;2023-12-14T11:11:20;95651.28;;;11.78;66.54
72636;BME280;60679;48.888;15.544;2023-12-14T11:13:52;95656.56;;;12.23;65.85
72636;BME280;60679;48.888;15.544;2023-12-14T11:16:20;95655.00;;;11.15;67.42
72636;BME280;60679;48.888;15.544;2023-12-14T11:18:46;95659.31;;;13.95;62.99
72636;BME280;60679;48.888;15.544;2023-12-14T11:21:18;95658.00;;;15.58;60.60
72636;BME280;60679;48.888;15.544;2023-12-14T11:23:45;95666.44;;;15.56;60.81
72636;BME280;60679;48.888;15.544;2023-12-14T11:26:10;95656.06;;;17.33;58.63
72636;BME280;60679;48.888;15.544;2023-12-14T11:28:38;95663.44;;;17.38;58.49
72636;BME280;60679;48.888;15.544;2023-12-14T11:31:04;95674.06;;;15.54;61.24
72636;BME280;60679;48.888;15.544;2023-12-14T11:33:33;95670.44;;;13.61;64.25
72636;BME280;60679;48.888;15.544;2023-12-14T11:36:00;95674.50;;;12.29;66.70
72636;BME280;60679;48.888;15.544;2023-12-14T11:38:26;95680.78;;;12.12;66.53
72636;BME280;60679;48.888;15.544;2023-12-14T11:40:52;95680.28;;;13.67;64.19
72636;BME280;60679;48.888;15.544;2023-12-14T11:43:21;95667.66;;;17.15;58.94
72636;BME280;60679;48.888;15.544;2023-12-14T11:45:47;95676.81;;;16.50;60.33
72636;BME280;60679;48.888;15.544;2023-12-14T11:48:13;95684.72;;;16.32;61.03
72636;BME280;60679;48.888;15.544;2023-12-14T11:50:40;95684.13;;;17.54;58.69
72636;BME280;60679;48.888;15.544;2023-12-14T11:53:05;95696.22;;;15.16;62.97
72636;BME280;60679;48.888;15.544;2023-12-14T11:55:34;95695.84;;;13.07;65.89
72636;BME280;60679;48.888;15.544;2023-12-14T11:57:59;95708.06;;;11.78;68.30
72636;BME280;60679;48.888;15.544;2023-12-14T12:00:27;95714.78;;;10.90;69.85
72636;BME280;60679;48.888;15.544;2023-12-14T12:03:17;95713.44;;;10.65;70.26
72636;BME280;60679;48.888;15.544;2023-12-14T12:05:48;95709.31;;;11.42;68.28
72636;BME280;60679;48.888;15.544;2023-12-14T12:08:16;95713.34;;;10.99;69.44
72636;BME280;60679;48.888;15.544;2023-12-14T12:10:43;95716.16;;;11.33;69.17
72636;BME280;60679;48.888;15.544;2023-12-14T12:13:15;95726.16;;;10.92;69.97
72636;BME280;60679;48.888;15.544;2023-12-14T12:15:41;95725.97;;;10.71;69.84
72636;BME280;60679;48.888;15.544;2023-12-14T12:18:08;95732.97;;;10.43;70.17
72636;BME280;60679;48.888;15.544;2023-12-14T12:20:34;95724.00;;;10.66;69.66
72636;BME280;60679;48.888;15.544;2023-12-14T12:23:00;95726.09;;;9.95;70.95
72636;BME280;60679;48.888;15.544;2023-12-14T12:25:26;95732.06;;;9.85;70.76
72636;BME280;60679;48.888;15.544;2023-12-14T12:27:53;95728.00;;;9.53;71.13
72636;BME280;60679;48.888;15.544;2023-12-14T12:30:19;95738.47;;;9.01;72.63
72636;BME280;60679;48.888;15.544;2023-12-14T12:32:44;95740.09;;;8.54;73.62
72636;BME280;60679;48.888;15.544;2023-12-14T12:35:10;95744.91;;;8.28;73.84
72636;BME280;60679;48.888;15.544;2023-12-14T12:37:35;95749.00;;;8.30;73.63
72636;BME280;60679;48.888;15.544;2023-12-14T12:40:00;95751.13;;;8.28;73.35
72636;BME280;60679;48.888;15.544;2023-12-14T12:42:26;95748.47;;;8.46;72.85
72636;BME280;60679;48.888;15.544;2023-12-14T12:44:52;95753.00;;;8.64;72.57
72636;BME280;60679;48.888;15.544;2023-12-14T12:47:17;95753.38;;;8.86;72.26
72636;BME280;60679;48.888;15.544;2023-12-14T12:49:43;95749.09;;;8.78;72.54
72636;BME280;60679;48.888;15.544;2023-12-14T12:52:09;95755.22;;;8.31;73.67
72636;BME280;60679;48.888;15.544;2023-12-14T12:54:35;95760.81;;;7.80;74.69
72636;BME280;60679;48.888;15.544;2023-12-14T12:57:00;95761.13;;;7.34;75.36
72636;BME280;60679;48.888;15.544;2023-12-14T12:59:25;95765.63;;;7.09;75.85